createdAt,value
2023-03-10T00:01:29.977Z,10.73
2023-03-10T00:03:59.726Z,9.13
2023-03-10T00:06:32.332Z,13.07
2023-03-10T00:08:59.686Z,10.57
2023-03-10T00:11:26.931Z,11.50
2023-03-10T00:13:54.060Z,11.32
2023-03-10T00:16:25.454Z,12.98
2023-03-10T00:18:53.174Z,12.73
2023-03-10T00:21:27.745Z,10.65
2023-03-10T00:23:55.798Z,11.07
2023-03-10T00:26:26.027Z,11.02
2023-03-10T00:28:54.698Z,11.45
2023-03-10T00:31:25.545Z,9.95
2023-03-10T00:33:52.516Z,10.38
2023-03-10T00:36:28.617Z,11.43
2023-03-10T00:38:56.632Z,10.38
2023-03-10T00:41:27.733Z,10.18
2023-03-10T00:43:54.553Z,11.27
2023-03-10T00:46:21.681Z,12.32
2023-03-10T00:48:48.711Z,10.30
2023-03-10T00:51:16.571Z,9.23
2023-03-10T00:53:44.235Z,9.75
2023-03-10T00:56:24.346Z,11.38
2023-03-10T00:58:54.707Z,10.98
2023-03-10T01:01:32.665Z,11.07
2023-03-10T01:04:07.714Z,11.13
2023-03-10T01:06:35.552Z,11.70
2023-03-10T01:09:04.126Z,10.93
2023-03-10T01:11:32.532Z,10.32
2023-03-10T01:14:03.599Z,11.50
2023-03-10T01:16:30.492Z,11.30
2023-03-10T01:18:58.666Z,10.20
2023-03-10T01:21:32.717Z,12.27
2023-03-10T01:24:01.060Z,10.90
2023-03-10T01:26:29.396Z,9.32
2023-03-10T01:28:56.386Z,10.57
2023-03-10T01:31:24.055Z,9.88
2023-03-10T01:33:51.116Z,10.65
2023-03-10T01:36:26.546Z,11.02
2023-03-10T01:38:56.490Z,11.05
2023-03-10T01:41:23.583Z,10.45
2023-03-10T01:43:55.060Z,10.43
2023-03-10T01:46:39.888Z,11.35
2023-03-10T01:49:31.451Z,9.13
2023-03-10T01:52:24.721Z,9.98
2023-03-10T01:55:03.914Z,9.73
2023-03-10T01:57:37.661Z,12.55
2023-03-10T02:00:14.729Z,11.45
2023-03-10T02:03:21.121Z,11.43
2023-03-10T02:05:56.924Z,11.55
2023-03-10T02:08:26.556Z,10.63
2023-03-10T02:10:54.254Z,10.77
2023-03-10T02:13:21.106Z,12.07
2023-03-10T02:15:49.317Z,12.07
2023-03-10T02:18:18.007Z,11.98
2023-03-10T02:21:17.842Z,10.35
2023-03-10T02:24:12.019Z,11.60
2023-03-10T02:27:08.556Z,11.90
2023-03-10T02:29:52.435Z,12.57
2023-03-10T02:32:25.202Z,12.20
2023-03-10T02:34:52.255Z,11.68
2023-03-10T02:37:31.979Z,14.23
2023-03-10T02:39:59.060Z,11.13
2023-03-10T02:42:34.255Z,10.32
2023-03-10T02:45:03.388Z,12.13
2023-03-10T02:47:30.413Z,13.02
2023-03-10T02:49:57.206Z,11.85
2023-03-10T02:52:43.079Z,12.02
2023-03-10T02:55:16.632Z,15.18
2023-03-10T02:57:43.438Z,14.38
2023-03-10T03:00:11.893Z,14.30
2023-03-10T03:02:38.990Z,14.60
2023-03-10T03:05:06.459Z,14.80
2023-03-10T03:07:33.465Z,16.77
2023-03-10T03:10:00.300Z,14.43
2023-03-10T03:12:27.162Z,13.50
2023-03-10T03:14:54.132Z,15.18
2023-03-10T03:17:21.033Z,13.18
2023-03-10T03:19:47.850Z,14.30
2023-03-10T03:22:14.669Z,13.75
2023-03-10T03:24:41.609Z,12.32
2023-03-10T03:27:08.447Z,12.45
2023-03-10T03:29:35.373Z,16.95
2023-03-10T03:32:02.516Z,15.98
2023-03-10T03:34:29.377Z,13.02
2023-03-10T03:36:56.218Z,13.40
2023-03-10T03:39:23.102Z,13.10
2023-03-10T03:41:53.309Z,11.50
2023-03-10T03:44:20.228Z,10.88
2023-03-10T03:46:47.095Z,12.07
2023-03-10T03:49:13.955Z,13.75
2023-03-10T03:51:41.133Z,15.48
2023-03-10T03:54:07.980Z,13.30
2023-03-10T03:56:34.773Z,12.60
2023-03-10T03:59:01.650Z,13.65
2023-03-10T04:01:28.451Z,12.52
2023-03-10T04:03:55.446Z,16.15
2023-03-10T04:06:22.365Z,15.05
2023-03-10T04:08:50.430Z,16.30
2023-03-10T04:11:17.299Z,17.58
2023-03-10T04:13:44.134Z,15.63
2023-03-10T04:16:11.105Z,18.52
2023-03-10T04:18:38.027Z,15.20
2023-03-10T04:21:05.182Z,14.57
2023-03-10T04:23:32.628Z,16.00
2023-03-10T04:25:59.755Z,15.50
2023-03-10T04:28:26.627Z,16.30
2023-03-10T04:30:53.559Z,16.13
2023-03-10T04:33:22.752Z,14.25
2023-03-10T04:35:51.352Z,18.85
2023-03-10T04:38:19.282Z,17.45
2023-03-10T04:40:46.239Z,23.42
2023-03-10T04:43:13.092Z,16.85
2023-03-10T04:45:39.980Z,17.42
2023-03-10T04:48:06.821Z,16.98
2023-03-10T04:50:33.622Z,18.30
2023-03-10T04:53:00.856Z,17.30
2023-03-10T04:55:27.693Z,16.75
2023-03-10T04:57:54.549Z,20.63
2023-03-10T05:00:22.777Z,19.88
2023-03-10T05:02:49.740Z,17.83
2023-03-10T05:05:16.774Z,19.38
2023-03-10T05:07:43.924Z,17.30
2023-03-10T05:10:11.980Z,18.02
2023-03-10T05:12:40.024Z,21.65
2023-03-10T05:15:07.791Z,17.23
2023-03-10T05:17:34.636Z,17.42
2023-03-10T05:20:01.553Z,16.10
2023-03-10T05:22:28.377Z,17.50
2023-03-10T05:24:55.230Z,17.50
2023-03-10T05:27:22.177Z,18.73
2023-03-10T05:29:49.162Z,16.67
2023-03-10T05:32:16.264Z,17.88
2023-03-10T05:34:43.143Z,17.40
2023-03-10T05:37:10.055Z,17.75
2023-03-10T05:39:36.967Z,15.65
2023-03-10T05:42:04.030Z,22.40
2023-03-10T05:44:30.878Z,17.85
2023-03-10T05:46:57.819Z,16.83
2023-03-10T05:49:24.784Z,20.02
2023-03-10T05:51:52.736Z,18.95
2023-03-10T05:54:19.615Z,17.83
2023-03-10T05:56:46.423Z,16.80
2023-03-10T05:59:14.556Z,17.35
2023-03-10T06:01:41.450Z,14.75
2023-03-10T06:04:08.471Z,15.98
2023-03-10T06:06:36.874Z,16.75
2023-03-10T06:09:04.150Z,18.85
2023-03-10T06:11:31.102Z,16.88
2023-03-10T06:13:58.045Z,15.77
2023-03-10T06:16:25.308Z,19.13
2023-03-10T06:18:56.924Z,16.17
2023-03-10T06:21:25.287Z,16.98
2023-03-10T06:23:52.476Z,17.90
2023-03-10T06:26:19.490Z,15.65
2023-03-10T06:28:47.112Z,16.20
2023-03-10T06:31:21.082Z,18.20
2023-03-10T06:33:48.521Z,18.35
2023-03-10T06:36:16.726Z,17.23
2023-03-10T06:38:44.418Z,16.10
2023-03-10T06:41:11.907Z,15.80
2023-03-10T06:43:40.272Z,16.38
2023-03-10T06:46:10.126Z,16.27
2023-03-10T06:48:38.840Z,18.13
2023-03-10T06:51:09.199Z,13.98
2023-03-10T06:53:36.177Z,17.52
2023-03-10T06:56:08.763Z,18.50
2023-03-10T06:58:37.839Z,16.30
2023-03-10T07:01:07.512Z,17.92
2023-03-10T07:03:36.784Z,16.85
2023-03-10T07:06:05.120Z,15.50
2023-03-10T07:08:31.935Z,15.52
2023-03-10T07:10:59.176Z,17.73
2023-03-10T07:13:26.015Z,14.00
2023-03-10T07:15:52.835Z,16.33
2023-03-10T07:18:20.084Z,18.50
2023-03-10T07:20:48.147Z,16.15
2023-03-10T07:23:15.937Z,16.88
2023-03-10T07:25:42.773Z,16.80
2023-03-10T07:28:09.727Z,17.80
2023-03-10T07:30:38.673Z,17.90
2023-03-10T07:33:05.710Z,16.42
2023-03-10T07:35:34.201Z,19.52
2023-03-10T07:38:03.815Z,18.30
2023-03-10T07:40:30.853Z,16.38
2023-03-10T07:42:57.733Z,17.92
2023-03-10T07:45:26.517Z,18.00
2023-03-10T07:47:54.866Z,16.63
2023-03-10T07:50:22.607Z,19.42
2023-03-10T07:52:49.713Z,18.05
2023-03-10T07:55:17.961Z,20.38
2023-03-10T07:57:44.941Z,17.73
2023-03-10T08:00:12.989Z,17.95
2023-03-10T08:02:40.917Z,16.50
2023-03-10T08:05:09.357Z,18.98
2023-03-10T08:07:37.212Z,17.63
2023-03-10T08:10:05.252Z,19.30
2023-03-10T08:12:32.128Z,20.33
2023-03-10T08:14:59.515Z,17.20
2023-03-10T08:17:30.779Z,21.48
2023-03-10T08:19:58.842Z,20.70
2023-03-10T08:22:26.638Z,18.63
2023-03-10T08:24:54.059Z,30.48
2023-03-10T08:27:21.678Z,18.15
2023-03-10T08:29:48.554Z,38.22
2023-03-10T08:32:15.503Z,18.17
2023-03-10T08:34:43.149Z,19.63
2023-03-10T08:37:11.517Z,16.08
2023-03-10T08:39:38.980Z,20.15
2023-03-10T08:42:06.692Z,16.50
2023-03-10T08:44:33.613Z,18.40
2023-03-10T08:47:00.674Z,19.17
2023-03-10T08:49:28.099Z,17.05
2023-03-10T08:51:55.274Z,15.60
2023-03-10T08:54:23.228Z,18.52
2023-03-10T08:56:50.073Z,16.58
2023-03-10T08:59:17.039Z,17.27
2023-03-10T09:01:43.962Z,17.15
2023-03-10T09:04:11.939Z,17.75
2023-03-10T09:06:39.568Z,18.25
2023-03-10T09:09:10.034Z,17.17
2023-03-10T09:11:40.706Z,16.13
2023-03-10T09:14:10.024Z,20.38
2023-03-10T09:16:39.415Z,17.85
2023-03-10T09:19:06.740Z,23.10
2023-03-10T09:21:34.317Z,19.40
2023-03-10T09:24:02.658Z,20.08
2023-03-10T09:26:30.122Z,20.73
2023-03-10T09:28:57.435Z,18.50
2023-03-10T09:31:38.157Z,18.27
2023-03-10T09:34:06.686Z,16.90
2023-03-10T09:36:34.321Z,19.13
2023-03-10T09:39:02.396Z,22.10
2023-03-10T09:41:47.139Z,18.02
2023-03-10T09:44:43.390Z,19.55
2023-03-10T09:47:10.792Z,22.52
2023-03-10T09:49:55.207Z,48.05
2023-03-10T09:52:38.616Z,55.33
2023-03-10T09:55:19.242Z,99.05
2023-03-10T09:57:57.171Z,38.25
2023-03-10T10:00:45.118Z,36.15
2023-03-10T10:03:23.591Z,45.83
2023-03-10T10:05:55.185Z,33.08
2023-03-10T10:08:32.901Z,24.83
2023-03-10T10:11:01.423Z,21.33
2023-03-10T10:13:30.593Z,20.27
2023-03-10T10:16:34.207Z,17.85
2023-03-10T10:19:14.652Z,20.27
2023-03-10T10:21:48.929Z,19.92
2023-03-10T10:24:18.769Z,19.83
2023-03-10T10:26:45.869Z,17.90
2023-03-10T10:29:32.752Z,19.40
2023-03-10T10:32:15.408Z,19.95
2023-03-10T10:34:45.773Z,17.55
2023-03-10T10:37:37.203Z,18.23
2023-03-10T10:40:27.695Z,15.70
2023-03-10T10:42:57.102Z,19.10
2023-03-10T10:45:32.497Z,19.00
2023-03-10T10:47:59.449Z,19.33
2023-03-10T10:50:31.035Z,18.67
2023-03-10T10:53:15.891Z,23.50
2023-03-10T10:55:46.414Z,19.75
2023-03-10T10:58:34.929Z,19.45
2023-03-10T11:01:09.618Z,19.13
2023-03-10T11:03:40.820Z,17.35
2023-03-10T11:06:27.560Z,17.67
2023-03-10T11:09:23.141Z,17.48
2023-03-10T11:12:35.108Z,19.85
2023-03-10T11:15:24.351Z,19.80
2023-03-10T11:17:59.264Z,19.92
2023-03-10T11:20:48.228Z,18.95
2023-03-10T11:23:39.260Z,19.40
2023-03-10T11:26:43.017Z,16.65
2023-03-10T11:29:34.354Z,18.10
2023-03-10T11:32:21.972Z,17.13
2023-03-10T11:34:55.988Z,19.35
2023-03-10T11:37:33.266Z,25.90
2023-03-10T11:40:26.548Z,18.23
2023-03-10T11:43:23.261Z,24.25
2023-03-10T11:45:54.240Z,31.33
2023-03-10T11:48:35.794Z,17.80
2023-03-10T11:51:05.486Z,20.90
2023-03-10T11:53:45.543Z,22.35
2023-03-10T11:56:17.073Z,22.40
2023-03-10T11:59:05.436Z,18.95
2023-03-10T12:02:15.751Z,18.95
2023-03-10T12:05:03.449Z,22.52
2023-03-10T12:07:39.534Z,23.55
2023-03-10T12:10:12.436Z,27.45
2023-03-10T12:15:32.408Z,25.63
2023-03-10T12:17:59.753Z,39.90
2023-03-10T12:20:30.182Z,49.70
2023-03-10T12:22:59.516Z,23.27
2023-03-10T12:25:29.595Z,19.58
2023-03-10T12:28:18.348Z,36.63
2023-03-10T12:31:00.311Z,20.55
2023-03-10T12:33:42.382Z,28.63
2023-03-10T12:36:29.871Z,23.13
2023-03-10T12:39:24.729Z,18.00
2023-03-10T12:41:54.133Z,16.90
2023-03-10T12:44:43.555Z,23.80
2023-03-10T12:47:35.820Z,16.88
2023-03-10T12:50:16.750Z,24.88
2023-03-10T12:52:47.995Z,23.08
2023-03-10T12:55:24.239Z,39.17
2023-03-10T12:57:57.163Z,59.60
2023-03-10T13:03:19.579Z,59.00
2023-03-10T13:06:13.171Z,50.55
2023-03-10T13:08:41.950Z,50.13
2023-03-10T13:11:43.134Z,33.95
2023-03-10T13:14:17.766Z,45.95
2023-03-10T13:17:00.682Z,28.02
2023-03-10T13:19:31.501Z,22.17
2023-03-10T13:21:59.459Z,33.58
2023-03-10T13:24:32.124Z,19.95
2023-03-10T13:27:19.866Z,16.95
2023-03-10T13:30:16.721Z,20.85
2023-03-10T13:32:53.393Z,19.70
2023-03-10T13:35:37.567Z,18.15
2023-03-10T13:38:08.566Z,17.92
2023-03-10T13:40:39.571Z,14.95
2023-03-10T13:43:26.577Z,16.50
2023-03-10T13:45:58.919Z,20.13
2023-03-10T13:48:28.910Z,22.60
2023-03-10T13:51:25.384Z,19.13
2023-03-10T13:53:55.884Z,14.48
2023-03-10T13:56:37.940Z,15.52
2023-03-10T13:59:28.336Z,21.42
2023-03-10T14:01:59.052Z,18.98
2023-03-10T14:04:45.798Z,24.08
2023-03-10T14:07:21.473Z,28.48
2023-03-10T14:10:10.124Z,19.38
2023-03-10T14:12:53.462Z,20.27
2023-03-10T14:15:22.951Z,21.38
2023-03-10T14:18:06.734Z,33.55
2023-03-10T14:20:45.959Z,20.23
2023-03-10T14:23:18.775Z,17.38
2023-03-10T14:25:48.373Z,20.85
2023-03-10T14:28:24.254Z,16.08
2023-03-10T14:30:51.564Z,15.18
2023-03-10T14:33:19.474Z,18.55
2023-03-10T14:35:47.200Z,18.95
2023-03-10T14:38:14.170Z,19.50
2023-03-10T14:40:55.403Z,20.17
2023-03-10T14:43:28.148Z,20.05
2023-03-10T14:46:01.584Z,19.00
2023-03-10T14:48:35.556Z,18.25
2023-03-10T14:51:03.129Z,18.40
2023-03-10T14:53:33.499Z,19.25
2023-03-10T14:56:02.528Z,16.98
2023-03-10T14:58:43.566Z,17.17
2023-03-10T15:01:10.512Z,18.92
2023-03-10T15:03:37.542Z,16.95
2023-03-10T15:06:04.533Z,19.17
2023-03-10T15:08:31.573Z,21.52
2023-03-10T15:10:58.803Z,28.23
2023-03-10T15:13:25.799Z,20.30
2023-03-10T15:15:53.487Z,18.80
2023-03-10T15:18:24.388Z,20.63
2023-03-10T15:20:51.450Z,21.35
2023-03-10T15:23:20.120Z,21.05
2023-03-10T15:25:48.012Z,26.55
2023-03-10T15:28:15.880Z,23.75
2023-03-10T15:30:43.223Z,19.85
2023-03-10T15:33:11.129Z,25.23
2023-03-10T15:35:39.497Z,19.20
2023-03-10T15:38:11.288Z,22.90
2023-03-10T15:40:39.077Z,16.98
2023-03-10T15:43:06.380Z,15.45
2023-03-10T15:45:34.082Z,17.42
2023-03-10T15:48:01.083Z,20.95
2023-03-10T15:50:28.321Z,26.73
2023-03-10T15:52:59.001Z,20.88
2023-03-10T15:55:29.183Z,19.95
2023-03-10T15:57:56.438Z,17.48
2023-03-10T16:00:26.068Z,23.73
2023-03-10T16:02:54.060Z,19.15
2023-03-10T16:05:21.595Z,23.05
2023-03-10T16:07:48.573Z,21.27
2023-03-10T16:10:19.931Z,20.48
2023-03-10T16:12:47.543Z,21.17
2023-03-10T16:15:18.076Z,21.95
2023-03-10T16:17:45.955Z,41.35
2023-03-10T16:20:13.833Z,24.85
2023-03-10T16:22:42.987Z,27.77
2023-03-10T16:25:16.241Z,22.92
2023-03-10T16:27:45.807Z,27.13
2023-03-10T16:30:15.719Z,27.55
2023-03-10T16:32:47.685Z,34.15
2023-03-10T16:35:16.146Z,22.75
2023-03-10T16:37:43.457Z,23.05
2023-03-10T16:40:11.579Z,20.83
2023-03-10T16:42:38.927Z,23.00
2023-03-10T16:45:07.494Z,23.67
2023-03-10T16:47:34.406Z,39.38
2023-03-10T16:50:01.477Z,24.90
2023-03-10T16:52:28.336Z,26.85
2023-03-10T16:55:01.424Z,29.92
2023-03-10T16:57:28.541Z,27.17
2023-03-10T16:59:58.167Z,29.55
2023-03-10T17:02:25.062Z,33.60
2023-03-10T17:04:53.416Z,29.05
2023-03-10T17:07:20.257Z,29.77
2023-03-10T17:09:47.178Z,38.03
2023-03-10T17:12:14.188Z,39.88
2023-03-10T17:14:41.191Z,36.35
2023-03-10T17:17:08.517Z,38.83
2023-03-10T17:19:35.680Z,35.00
2023-03-10T17:22:03.012Z,34.28
2023-03-10T17:24:31.318Z,35.47
2023-03-10T17:26:58.397Z,46.08
2023-03-10T17:29:25.818Z,68.95
2023-03-10T17:31:52.933Z,42.17
2023-03-10T17:34:20.326Z,35.08
2023-03-10T17:36:51.307Z,36.60
2023-03-10T17:39:22.037Z,39.70
2023-03-10T17:41:49.654Z,38.33
2023-03-10T17:44:17.388Z,45.53
2023-03-10T17:46:45.431Z,36.03
2023-03-10T17:49:15.181Z,37.72
2023-03-10T17:51:44.479Z,34.72
2023-03-10T17:54:20.196Z,35.17
2023-03-10T17:56:48.430Z,30.50
2023-03-10T17:59:16.257Z,35.72
2023-03-10T18:01:45.427Z,35.17
2023-03-10T18:04:12.727Z,33.05
2023-03-10T18:06:40.071Z,29.67
2023-03-10T18:09:12.782Z,30.17
2023-03-10T18:11:40.189Z,31.58
2023-03-10T18:14:07.647Z,41.85
2023-03-10T18:16:40.092Z,47.13
2023-03-10T18:19:10.718Z,36.88
2023-03-10T18:21:38.912Z,31.35
2023-03-10T18:24:06.789Z,48.15
2023-03-10T18:26:35.773Z,41.75
2023-03-10T18:29:02.810Z,39.40
2023-03-10T18:31:33.065Z,41.70
2023-03-10T18:34:01.303Z,40.80
2023-03-10T18:36:29.847Z,46.92
2023-03-10T18:38:57.449Z,49.15
2023-03-10T18:41:27.492Z,42.03
2023-03-10T18:43:54.563Z,42.63
2023-03-10T18:46:22.278Z,42.03
2023-03-10T18:48:55.542Z,42.67
2023-03-10T18:51:28.434Z,42.55
2023-03-10T18:53:55.942Z,40.83
2023-03-10T18:56:26.006Z,51.30
2023-03-10T18:58:53.371Z,42.97
2023-03-10T19:01:21.110Z,49.80
2023-03-10T19:03:48.131Z,60.45
2023-03-10T19:06:15.153Z,53.05
2023-03-10T19:08:42.140Z,46.78
2023-03-10T19:11:09.495Z,55.13
2023-03-10T19:13:40.448Z,44.70
2023-03-10T19:16:10.025Z,44.33
2023-03-10T19:18:37.658Z,43.95
2023-03-10T19:21:06.176Z,39.58
2023-03-10T19:23:34.940Z,44.92
2023-03-10T19:26:03.491Z,41.40
2023-03-10T19:28:31.417Z,44.47
2023-03-10T19:30:58.854Z,44.40
2023-03-10T19:33:25.833Z,43.03
2023-03-10T19:36:11.876Z,51.95
2023-03-10T19:38:40.938Z,52.38
2023-03-10T19:41:19.389Z,48.05
2023-03-10T19:43:49.164Z,41.83
2023-03-10T19:46:17.969Z,42.10
2023-03-10T19:48:45.489Z,58.00
2023-03-10T19:51:28.203Z,44.92
2023-03-10T19:53:59.954Z,47.60
2023-03-10T19:56:26.927Z,44.28
2023-03-10T19:58:53.984Z,48.00
2023-03-10T20:01:25.192Z,53.22
2023-03-10T20:03:55.484Z,51.40
2023-03-10T20:06:23.277Z,48.30
2023-03-10T20:08:51.532Z,54.75
2023-03-10T20:11:19.880Z,59.85
2023-03-10T20:13:47.063Z,60.17
2023-03-10T20:16:15.893Z,54.67
2023-03-10T20:18:43.186Z,52.35
2023-03-10T20:21:10.378Z,56.75
2023-03-10T20:23:37.573Z,48.83
2023-03-10T20:26:08.890Z,62.28
2023-03-10T20:28:39.779Z,54.00
2023-03-10T20:31:07.006Z,65.07
2023-03-10T20:33:36.304Z,40.70
2023-03-10T20:36:03.504Z,51.15
2023-03-10T20:38:30.456Z,49.30
2023-03-10T20:40:57.545Z,48.40
2023-03-10T20:43:24.523Z,50.33
2023-03-10T20:45:52.603Z,46.92
2023-03-10T20:48:19.617Z,48.05
2023-03-10T20:50:46.486Z,50.25
2023-03-10T20:53:13.320Z,52.15
2023-03-10T20:55:42.335Z,71.30
2023-03-10T20:58:09.185Z,65.63
2023-03-10T21:00:36.088Z,52.97
2023-03-10T21:03:02.885Z,50.25
2023-03-10T21:05:29.815Z,52.38
2023-03-10T21:07:58.216Z,61.40
2023-03-10T21:10:27.774Z,52.53
2023-03-10T21:12:54.656Z,59.63
2023-03-10T21:15:23.728Z,104.60
2023-03-10T21:17:50.985Z,67.25
2023-03-10T21:20:21.938Z,86.35
2023-03-10T21:22:49.295Z,50.17
2023-03-10T21:25:23.980Z,72.78
2023-03-10T21:27:58.585Z,76.75
2023-03-10T21:30:28.857Z,104.85
2023-03-10T21:32:56.831Z,57.63
2023-03-10T21:35:26.332Z,67.88
2023-03-10T21:37:55.272Z,94.20
2023-03-10T21:40:24.142Z,67.82
2023-03-10T21:42:51.205Z,64.50
2023-03-10T21:45:24.323Z,62.75
2023-03-10T21:47:51.467Z,108.70
2023-03-10T21:50:19.714Z,86.65
2023-03-10T21:52:48.114Z,77.85
2023-03-10T21:55:24.276Z,80.13
2023-03-10T21:57:52.436Z,60.95
2023-03-10T22:00:23.165Z,66.15
2023-03-10T22:02:51.941Z,55.47
2023-03-10T22:05:20.168Z,77.53
2023-03-10T22:07:47.081Z,82.63
2023-03-10T22:10:15.660Z,84.28
2023-03-10T22:12:42.873Z,61.70
2023-03-10T22:15:17.840Z,63.25
2023-03-10T22:17:44.955Z,59.92
2023-03-10T22:20:27.107Z,84.38
2023-03-10T22:22:54.494Z,43.38
2023-03-10T22:25:21.784Z,53.17
2023-03-10T22:27:53.142Z,83.10
2023-03-10T22:30:23.169Z,65.07
2023-03-10T22:32:50.293Z,66.38
2023-03-10T22:35:18.171Z,63.03
2023-03-10T22:37:45.539Z,71.10
2023-03-10T22:40:25.081Z,83.53
2023-03-10T22:42:53.021Z,57.58
2023-03-10T22:45:29.974Z,54.17
2023-03-10T22:48:03.898Z,44.40
2023-03-10T22:50:40.704Z,49.20
2023-03-10T22:53:16.841Z,49.58
2023-03-10T22:55:46.359Z,78.45
2023-03-10T22:58:14.318Z,52.95
2023-03-10T23:00:42.520Z,54.45
2023-03-10T23:03:15.301Z,69.20
2023-03-10T23:05:44.935Z,59.53
2023-03-10T23:08:12.620Z,51.15
2023-03-10T23:10:41.777Z,54.92
2023-03-10T23:13:15.416Z,65.10
2023-03-10T23:15:43.171Z,61.25
2023-03-10T23:18:10.913Z,50.20
2023-03-10T23:20:47.732Z,53.78
2023-03-10T23:23:16.216Z,56.92
2023-03-10T23:25:51.021Z,53.25
2023-03-10T23:28:21.829Z,51.13
2023-03-10T23:30:50.858Z,58.40
2023-03-10T23:33:21.587Z,57.10
2023-03-10T23:35:54.336Z,55.40
2023-03-10T23:40:50.838Z,47.05
2023-03-10T23:43:18.606Z,47.10
2023-03-10T23:45:45.808Z,38.33
2023-03-10T23:48:18.565Z,32.40
2023-03-10T23:50:48.223Z,31.05
2023-03-10T23:53:17.531Z,31.23
2023-03-10T23:55:47.197Z,33.40
2023-03-10T23:58:16.929Z,30.73
